Time;durP1;ratioP1;P1;durP2;ratioP2;P2;SDS_P1;SDS_P2;PMS_P1;PMS_P2;Temp;Humidity;BMP_temperature;BMP_pressure;BME280_temperature;BME280_humidity;BME280_pressure;Samples;Min_cycle;Max_cycle;Signal;HPM_P1;HPM_P2
2021/08/07 00:00:44;;;;;;;17.32;8.10;;;;;;;21.89;85.19;100445.63;1683967;83;21274;-72
2021/08/07 00:03:18;;;;;;;21.70;9.38;;;;;;;21.86;85.67;100453.38;1709276;82;21346;-72
2021/08/07 00:05:51;;;;;;;23.22;8.55;;;;;;;21.82;86.02;100457.47;1688461;82;21415;-73
2021/08/07 00:08:24;;;;;;;21.55;9.55;;;;;;;21.81;86.40;100457.80;1668881;83;21206;-71
2021/08/07 00:10:58;;;;;;;18.87;9.25;;;;;;;21.81;86.82;100460.63;1703655;82;21870;-73
2021/08/07 00:13:30;;;;;;;18.50;8.45;;;;;;;21.80;87.04;100458.41;1716201;83;21192;-73
2021/08/07 00:16:04;;;;;;;17.55;8.05;;;;;;;21.80;87.28;100464.63;1703683;83;21220;-72
2021/08/07 00:18:37;;;;;;;18.48;9.18;;;;;;;21.80;87.51;100456.15;1714264;83;21243;-73
2021/08/07 00:21:09;;;;;;;19.75;8.00;;;;;;;21.79;87.33;100455.34;1685084;83;21758;-72
2021/08/07 00:23:41;;;;;;;17.32;8.55;;;;;;;21.82;87.42;100459.48;1678272;84;21460;-73
2021/08/07 00:26:14;;;;;;;16.40;9.75;;;;;;;21.86;87.48;100463.27;1696991;83;21241;-72
2021/08/07 00:28:47;;;;;;;21.25;8.53;;;;;;;21.87;87.44;100464.92;1734529;82;21273;-73
2021/08/07 00:31:19;;;;;;;14.13;7.92;;;;;;;21.89;87.55;100468.26;1678973;83;21388;-73
2021/08/07 00:33:52;;;;;;;18.40;8.05;;;;;;;21.90;87.63;100471.33;1676968;83;21370;-73
2021/08/07 00:36:26;;;;;;;14.73;8.50;;;;;;;21.89;87.65;100474.72;1703399;84;21225;-73
2021/08/07 00:38:59;;;;;;;19.27;8.83;;;;;;;21.93;87.67;100484.20;1660996;85;21248;-73
2021/08/07 00:41:33;;;;;;;15.93;8.10;;;;;;;22.00;87.44;100476.60;1710334;82;21387;-73
2021/08/07 00:44:06;;;;;;;12.80;8.00;;;;;;;22.08;87.36;100464.39;1714235;83;21176;-73
2021/08/07 00:46:40;;;;;;;15.48;7.95;;;;;;;22.09;87.36;100451.91;1708876;83;21255;-74
2021/08/07 00:49:13;;;;;;;17.15;8.53;;;;;;;22.09;86.95;100453.32;1705469;84;21363;-73
2021/08/07 00:51:47;;;;;;;16.90;9.23;;;;;;;22.05;86.57;100454.59;1689316;83;21212;-71
2021/08/07 00:54:22;;;;;;;17.60;8.95;;;;;;;22.06;86.54;100456.84;1702880;83;21217;-73
2021/08/07 00:56:58;;;;;;;15.83;8.93;;;;;;;22.10;86.39;100464.88;1716318;78;21346;-73
2021/08/07 00:59:32;;;;;;;19.30;8.35;;;;;;;22.15;86.41;100461.28;1739191;81;21311;-71
2021/08/07 01:02:10;;;;;;;16.82;8.68;;;;;;;22.22;86.41;100472.03;1748866;81;21253;-74
2021/08/07 01:04:54;;;;;;;15.28;8.68;;;;;;;22.25;86.26;100471.36;1779190;80;21739;-71
2021/08/07 01:08:03;;;;;;;17.75;8.73;;;;;;;22.26;85.95;100466.75;1763391;80;21339;-71
2021/08/07 01:10:49;;;;;;;12.55;7.72;;;;;;;22.34;85.87;100468.71;1768487;80;21353;-71
2021/08/07 01:13:30;;;;;;;23.02;8.70;;;;;;;22.40;85.26;100470.73;1772510;80;21166;-72
2021/08/07 01:16:13;;;;;;;18.77;9.78;;;;;;;22.40;85.00;100470.73;1776541;80;21838;-71
2021/08/07 01:18:47;;;;;;;18.65;8.70;;;;;;;22.39;84.88;100467.67;1751686;80;21214;-70
2021/08/07 01:21:23;;;;;;;21.05;7.97;;;;;;;22.33;84.78;100474.70;1751979;80;21851;-70
2021/08/07 01:24:13;;;;;;;19.98;7.90;;;;;;;22.28;84.91;100463.59;1749446;81;21377;-71
2021/08/07 01:27:14;;;;;;;14.33;9.03;;;;;;;22.28;85.12;100457.92;1750999;80;21888;-72
2021/08/07 01:29:59;;;;;;;14.18;9.05;;;;;;;22.28;85.28;100464.42;1750717;80;21343;-78
2021/08/07 01:32:34;;;;;;;15.40;8.15;;;;;;;22.24;85.38;100464.05;1755340;82;21325;-73
2021/08/07 01:35:09;;;;;;;17.48;8.73;;;;;;;22.22;85.45;100455.05;1755546;82;21308;-71
2021/08/07 01:37:43;;;;;;;19.65;8.65;;;;;;;22.20;85.50;100455.39;1721654;83;21392;-72
2021/08/07 01:40:19;;;;;;;18.65;8.75;;;;;;;22.19;85.67;100451.52;1667935;83;21210;-73
2021/08/07 01:42:53;;;;;;;20.88;9.15;;;;;;;22.20;85.83;100446.91;1716492;82;21333;-73
2021/08/07 01:45:28;;;;;;;18.02;8.90;;;;;;;22.20;85.83;100436.19;1716749;83;21299;-73
2021/08/07 01:49:00;;;;;;;15.65;9.48;;;;;;;22.19;85.77;100445.25;1723837;83;21154;-72
2021/08/07 01:51:56;;;;;;;19.40;9.50;;;;;;;22.15;85.82;100444.88;1587480;89;21789;-71
2021/08/07 01:54:33;;;;;;;20.00;10.15;;;;;;;22.12;86.14;100443.56;1580714;91;21242;-71
2021/08/07 01:57:11;;;;;;;16.93;10.15;;;;;;;22.13;86.41;100447.23;1661012;84;21845;-71
2021/08/07 01:59:46;;;;;;;14.95;8.75;;;;;;;22.12;86.55;100449.82;1691297;85;21210;-71
2021/08/07 02:02:20;;;;;;;24.30;9.35;;;;;;;22.11;86.61;100458.88;1706766;83;21192;-70
2021/08/07 02:04:54;;;;;;;21.57;8.55;;;;;;;22.13;86.75;100470.67;1724097;83;21312;-72
2021/08/07 02:07:29;;;;;;;15.50;8.83;;;;;;;22.13;86.71;100470.67;1718327;83;21202;-72
2021/08/07 02:10:05;;;;;;;15.50;9.05;;;;;;;22.12;86.52;100479.53;1718288;82;21828;-72
2021/08/07 02:12:39;;;;;;;14.28;8.40;;;;;;;22.14;86.13;100491.31;1706898;83;21236;-72
2021/08/07 02:15:16;;;;;;;14.90;8.53;;;;;;;22.16;85.91;100496.88;1709003;82;21190;-72
2021/08/07 02:17:49;;;;;;;13.90;8.80;;;;;;;22.19;85.69;100500.42;1692059;83;21380;-73
2021/08/07 02:20:24;;;;;;;22.62;10.18;;;;;;;22.27;85.67;100502.97;1708378;82;21703;-72
2021/08/07 02:22:58;;;;;;;24.00;9.85;;;;;;;22.32;85.25;100508.42;1723719;81;21170;-72
2021/08/07 02:25:31;;;;;;;19.50;10.20;;;;;;;22.32;85.63;100507.02;1687332;85;21392;-73
2021/08/07 02:28:08;;;;;;;19.92;9.40;;;;;;;22.30;86.19;100501.69;1720822;82;21181;-74
2021/08/07 02:30:42;;;;;;;15.78;9.38;;;;;;;22.28;86.65;100494.14;1687811;85;21384;-74
2021/08/07 02:33:16;;;;;;;17.87;10.63;;;;;;;22.25;87.01;100497.64;1693931;83;21330;-71
2021/08/07 02:35:50;;;;;;;24.87;9.85;;;;;;;22.18;87.26;100499.38;1668733;85;21213;-71
2021/08/07 02:38:26;;;;;;;18.15;9.78;;;;;;;22.13;87.32;100508.05;1716961;83;21393;-71
2021/08/07 02:41:00;;;;;;;16.48;8.80;;;;;;;22.08;87.58;100511.88;1662854;85;21249;-72
2021/08/07 02:43:34;;;;;;;14.75;9.00;;;;;;;22.06;87.90;100505.75;1702440;83;21329;-73
2021/08/07 02:46:13;;;;;;;17.95;9.93;;;;;;;22.07;88.21;100496.69;1741406;82;21324;-74
2021/08/07 02:48:46;;;;;;;20.00;10.98;;;;;;;22.12;87.96;100495.89;1714360;82;21334;-73
2021/08/07 02:51:21;;;;;;;20.27;11.30;;;;;;;22.12;88.00;100490.84;1701118;84;21206;-74
2021/08/07 02:53:55;;;;;;;21.17;9.85;;;;;;;22.13;87.87;100485.42;1709113;84;21363;-73
2021/08/07 02:56:28;;;;;;;22.25;8.90;;;;;;;22.13;87.82;100491.08;1667388;85;21355;-73
2021/08/07 02:59:00;;;;;;;15.73;9.37;;;;;;;22.17;87.66;100501.36;1703072;83;21194;-72
2021/08/07 03:01:35;;;;;;;17.25;10.53;;;;;;;22.19;87.53;100507.50;1692032;83;21197;-74
2021/08/07 03:04:08;;;;;;;16.75;9.65;;;;;;;22.21;87.26;100518.48;1678392;79;21341;-75
2021/08/07 03:06:41;;;;;;;16.55;9.43;;;;;;;22.19;87.18;100516.59;1734415;81;21170;-74
2021/08/07 03:09:14;;;;;;;15.08;8.98;;;;;;;22.18;87.39;100512.11;1733922;81;21798;-73
2021/08/07 03:11:49;;;;;;;21.12;10.95;;;;;;;22.18;87.39;100507.86;1730150;81;21179;-74
2021/08/07 03:14:23;;;;;;;15.28;10.65;;;;;;;22.18;87.58;100505.03;1710299;81;21206;-75
2021/08/07 03:16:56;;;;;;;15.10;9.73;;;;;;;22.20;87.25;100502.08;1736290;81;21697;-74
2021/08/07 03:19:32;;;;;;;19.12;9.68;;;;;;;22.15;87.04;100506.55;1732319;81;21175;-75
2021/08/07 03:22:04;;;;;;;;;;;;;;;22.11;87.11;100511.78;1747784;81;21868;-73
2021/08/07 03:24:38;;;;;;;16.45;10.40;;;;;;;22.08;87.47;100511.88;1761513;81;20528;-73
2021/08/07 03:27:10;;;;;;;22.07;10.40;;;;;;;22.08;87.72;100516.13;1760503;81;21225;-73
2021/08/07 03:29:46;;;;;;;19.98;10.60;;;;;;;22.14;87.86;100519.61;1761087;81;21238;-71
2021/08/07 03:32:20;;;;;;;20.75;10.35;;;;;;;22.16;87.39;100531.41;1756147;81;21231;-74
2021/08/07 03:34:52;;;;;;;18.75;9.78;;;;;;;22.13;86.98;100531.50;1762207;79;21231;-73
2021/08/07 03:37:25;;;;;;;17.52;9.40;;;;;;;22.12;86.90;100536.10;1767775;81;21333;-73
2021/08/07 03:39:59;;;;;;;16.55;10.88;;;;;;;22.06;87.08;100531.81;1767736;80;21817;-73
2021/08/07 03:42:33;;;;;;;18.23;11.12;;;;;;;22.04;87.33;100539.78;1767210;81;21358;-75
2021/08/07 03:45:11;;;;;;;23.47;10.53;;;;;;;22.02;87.42;100553.45;1767738;81;21947;-75
2021/08/07 03:47:50;;;;;;;17.92;9.55;;;;;;;22.00;87.70;100553.78;1755934;81;21330;-71
2021/08/07 03:50:26;;;;;;;10.55;8.78;;;;;;;21.95;87.35;100553.16;1721439;82;21922;-73
2021/08/07 03:52:59;;;;;;;21.63;10.47;;;;;;;21.85;87.69;100560.59;1734861;82;21380;-68
2021/08/07 03:55:31;;;;;;;17.62;12.30;;;;;;;21.74;87.67;100567.20;1737329;82;21603;-73
2021/08/07 03:58:05;;;;;;;30.82;14.70;;;;;;;21.64;88.18;100560.45;1780897;80;21278;-70
2021/08/07 04:00:39;;;;;;;25.50;18.35;;;;;;;21.57;88.32;100567.22;1742063;81;21312;-68
2021/08/07 04:03:14;;;;;;;22.05;14.65;;;;;;;21.53;88.80;100572.47;1717358;82;21728;-73
2021/08/07 04:05:47;;;;;;;22.52;13.22;;;;;;;21.50;89.12;100578.20;1709774;82;21723;-73
2021/08/07 04:08:20;;;;;;;29.30;13.18;;;;;;;21.48;89.09;100566.98;1720560;82;21394;-74
2021/08/07 04:10:54;;;;;;;15.78;10.10;;;;;;;21.43;89.29;100561.51;1737314;81;21208;-73
2021/08/07 04:13:28;;;;;;;14.47;10.08;;;;;;;21.40;89.59;100573.50;1780906;80;21211;-73
2021/08/07 04:16:04;;;;;;;24.07;10.25;;;;;;;21.37;89.57;100582.63;1767665;80;21172;-74
2021/08/07 04:18:38;;;;;;;21.23;10.45;;;;;;;21.39;89.51;100590.20;1751314;81;21680;-74
2021/08/07 04:21:14;;;;;;;21.97;10.53;;;;;;;21.37;89.59;100584.04;1746488;82;21332;-74
2021/08/07 04:23:46;;;;;;;17.73;9.90;;;;;;;21.38;89.54;100577.22;1746966;81;21332;-74
2021/08/07 04:26:19;;;;;;;20.32;9.45;;;;;;;21.42;89.16;100580.48;1690712;83;21245;-74
2021/08/07 04:28:52;;;;;;;;;;;;;;;21.42;89.20;100570.59;1749313;82;21155;-74
2021/08/07 04:31:25;;;;;;;17.32;9.88;;;;;;;21.40;89.14;100564.42;1750730;82;20250;-77
2021/08/07 04:33:57;;;;;;;20.95;9.70;;;;;;;21.38;89.44;100567.33;1719276;81;21336;-72
2021/08/07 04:36:30;;;;;;;22.45;9.88;;;;;;;21.36;89.40;100573.91;1750397;82;21309;-72
2021/08/07 04:39:03;;;;;;;18.35;8.88;;;;;;;21.36;89.53;100579.56;1748535;82;21343;-73
2021/08/07 04:41:36;;;;;;;17.65;9.90;;;;;;;21.34;89.67;100583.31;1753092;82;21225;-72
2021/08/07 04:44:10;;;;;;;17.92;10.35;;;;;;;21.39;89.73;100594.45;1750100;82;21708;-72
2021/08/07 04:46:44;;;;;;;18.55;10.43;;;;;;;21.43;89.60;100599.09;1784376;80;21171;-71
2021/08/07 04:49:17;;;;;;;15.28;9.68;;;;;;;21.46;89.51;100601.23;1750391;82;21170;-73
2021/08/07 04:51:50;;;;;;;16.80;10.18;;;;;;;21.54;89.32;100610.30;1750406;82;21324;-72
2021/08/07 04:54:23;;;;;;;;;;;;;;;21.55;89.07;100611.95;1752824;81;21331;-72
2021/08/07 04:56:57;;;;;;;17.12;9.65;;;;;;;21.56;88.91;100619.26;1750546;80;20222;-72
2021/08/07 04:59:30;;;;;;;17.07;10.98;;;;;;;21.57;88.76;100639.89;1750317;81;21937;-75
2021/08/07 05:02:02;;;;;;;13.03;9.90;;;;;;;21.57;88.82;100646.95;1728678;82;21328;-73
2021/08/07 05:04:39;;;;;;;16.70;10.48;;;;;;;21.58;88.96;100657.09;1742279;82;21380;-74
2021/08/07 05:07:11;;;;;;;21.52;11.08;;;;;;;21.59;89.08;100664.41;1771484;81;21267;-78
2021/08/07 05:09:44;;;;;;;21.90;10.03;;;;;;;21.62;89.08;100680.11;1773734;81;21318;-73
2021/08/07 05:12:22;;;;;;;19.92;10.20;;;;;;;21.64;88.43;100686.25;1771583;80;21223;-75
2021/08/07 05:14:54;;;;;;;18.10;10.50;;;;;;;21.65;88.16;100692.75;1772869;81;21215;-73
2021/08/07 05:17:28;;;;;;;22.27;10.70;;;;;;;21.64;87.13;100693.31;1772915;81;21191;-74
2021/08/07 05:20:01;;;;;;;25.75;11.35;;;;;;;21.61;87.09;100708.70;1773524;80;21188;-78
2021/08/07 05:22:36;;;;;;;20.25;11.22;;;;;;;21.58;87.44;100709.39;1771384;80;21258;-74
2021/08/07 05:25:10;;;;;;;17.67;10.50;;;;;;;21.52;87.66;100715.77;1767968;81;21226;-74
2021/08/07 05:27:43;;;;;;;23.40;10.03;;;;;;;21.47;87.78;100725.01;1773861;81;21210;-74
2021/08/07 05:30:16;;;;;;;14.85;10.23;;;;;;;21.47;88.19;100733.48;1767249;81;21195;-74
2021/08/07 05:32:49;;;;;;;;;;;;;;;21.50;88.42;100729.98;1763278;81;21305;-74
2021/08/07 05:35:23;;;;;;;19.52;10.68;;;;;;;21.53;88.29;100753.36;1773687;80;20188;-73
2021/08/07 05:37:57;;;;;;;21.55;11.57;;;;;;;21.53;88.15;100757.59;1775718;78;21333;-71
2021/08/07 05:40:32;;;;;;;18.40;10.70;;;;;;;21.54;88.05;100767.16;1775568;79;21410;-72
2021/08/07 05:43:06;;;;;;;15.83;10.35;;;;;;;21.55;87.79;100772.22;1742857;79;21304;-74
2021/08/07 05:45:39;;;;;;;13.38;10.18;;;;;;;21.54;88.04;100791.19;1771143;79;21379;-73
2021/08/07 05:48:12;;;;;;;;;;;;;;;21.53;88.16;100802.81;1771757;79;21806;-72
2021/08/07 05:50:45;;;;;;;18.90;9.93;;;;;;;21.51;87.68;100816.46;1779884;79;20203;-71
2021/08/07 05:53:18;;;;;;;19.15;10.55;;;;;;;21.47;87.33;100832.40;1750457;80;21346;-70
2021/08/07 05:55:56;;;;;;;17.37;10.55;;;;;;;21.47;86.84;100833.22;1763112;81;21199;-73
2021/08/07 05:58:30;;;;;;;22.37;11.03;;;;;;;21.50;86.60;100833.14;1795107;77;21699;-74
2021/08/07 06:01:03;;;;;;;21.37;11.35;;;;;;;21.52;87.09;100836.49;1788041;79;21819;-72
2021/08/07 06:03:36;;;;;;;17.20;10.55;;;;;;;21.51;87.46;100848.96;1787965;79;21670;-73
2021/08/07 06:06:09;;;;;;;;;;;;;;;21.51;87.74;100846.14;1788608;79;21420;-75
2021/08/07 06:08:41;;;;;;;20.72;12.43;;;;;;;21.50;87.96;100846.70;1780480;80;20256;-72
2021/08/07 06:11:15;;;;;;;19.77;11.45;;;;;;;21.51;88.46;100851.80;1776447;80;21237;-77
2021/08/07 06:13:48;;;;;;;;;;;;;;;21.55;88.70;100843.73;1765810;81;21675;-78
2021/08/07 06:16:22;;;;;;;24.27;11.80;;;;;;;21.55;88.78;100849.38;1763131;81;20228;-71
2021/08/07 06:18:59;;;;;;;18.25;10.55;;;;;;;21.54;89.12;100847.72;1779315;80;21221;-74
2021/08/07 06:21:35;;;;;;;14.68;9.53;;;;;;;21.51;88.97;100857.45;1766639;80;21224;-77
2021/08/07 06:24:07;;;;;;;16.57;10.00;;;;;;;21.49;88.82;100867.66;1762911;80;21477;-77
2021/08/07 06:26:40;;;;;;;;;;;;;;;21.53;88.78;100865.81;1766926;80;21341;-74
2021/08/07 06:29:13;;;;;;;19.55;10.68;;;;;;;21.56;88.73;100866.59;1789552;78;20215;-73
2021/08/07 06:31:46;;;;;;;18.92;10.88;;;;;;;21.55;88.63;100868.32;1763012;81;21833;-72
2021/08/07 06:34:19;;;;;;;16.15;10.40;;;;;;;21.52;88.74;100860.52;1763050;80;21719;-73
2021/08/07 06:36:52;;;;;;;20.75;11.18;;;;;;;21.52;88.63;100862.74;1754461;80;21355;-73
2021/08/07 06:39:26;;;;;;;16.10;9.75;;;;;;;21.53;88.66;100859.34;1730508;80;21182;-74
2021/08/07 06:42:00;;;;;;;23.42;10.00;;;;;;;21.50;88.31;100858.01;1756910;80;21714;-74
2021/08/07 06:44:52;;;;;;;15.95;10.23;;;;;;;21.51;88.41;100860.27;1688711;84;21328;-72
2021/08/07 06:47:25;;;;;;;;;;;;;;;21.52;88.39;100864.76;1685865;85;21246;-73
2021/08/07 06:49:57;;;;;;;15.08;11.03;;;;;;;21.56;88.42;100858.67;1716004;82;20217;-72
2021/08/07 06:52:30;;;;;;;18.32;11.03;;;;;;;21.59;88.18;100860.86;1753342;82;21348;-74
2021/08/07 06:55:04;;;;;;;16.37;11.45;;;;;;;21.51;88.06;100859.67;1756093;82;21874;-74
2021/08/07 06:57:40;;;;;;;21.27;11.25;;;;;;;21.41;88.66;100857.17;1755337;82;21331;-73
2021/08/07 07:00:15;;;;;;;21.48;11.95;;;;;;;21.36;88.91;100859.30;1752635;80;21344;-73
2021/08/07 07:02:49;;;;;;;17.17;11.75;;;;;;;21.31;89.15;100863.11;1754319;80;21395;-71
2021/08/07 07:05:22;;;;;;;15.53;10.95;;;;;;;21.28;89.56;100865.16;1741709;81;21805;-71
2021/08/07 07:07:56;;;;;;;24.20;13.15;;;;;;;21.24;90.04;100862.77;1736541;82;21731;-75
2021/08/07 07:10:29;;;;;;;23.90;12.03;;;;;;;21.21;90.46;100864.81;1750723;80;21342;-74
2021/08/07 07:13:02;;;;;;;25.17;12.45;;;;;;;21.18;91.04;100858.98;1751836;80;21447;-74
2021/08/07 07:15:35;;;;;;;21.02;12.10;;;;;;;21.16;91.32;100856.48;1751035;80;21407;-74
2021/08/07 07:18:08;;;;;;;22.00;11.33;;;;;;;21.24;91.20;100852.03;1753844;80;21182;-77
2021/08/07 07:20:41;;;;;;;22.43;12.17;;;;;;;21.24;91.20;100852.03;1753811;80;21891;-73
2021/08/07 07:23:16;;;;;;;15.20;10.80;;;;;;;21.28;91.49;100853.05;1769371;80;21419;-74
2021/08/07 07:25:50;;;;;;;22.10;12.25;;;;;;;21.34;91.54;100841.85;1748754;81;21184;-73
2021/08/07 07:28:23;;;;;;;17.20;11.80;;;;;;;21.43;91.52;100849.75;1769466;80;21170;-73
2021/08/07 07:30:56;;;;;;;17.92;12.98;;;;;;;21.47;91.50;100838.87;1752846;82;21344;-75
2021/08/07 07:33:28;;;;;;;20.40;12.40;;;;;;;21.54;91.29;100831.33;1752881;82;21344;-73
2021/08/07 07:36:02;;;;;;;13.35;11.05;;;;;;;21.59;91.03;100829.77;1752744;82;21752;-74
2021/08/07 07:38:35;;;;;;;17.77;11.40;;;;;;;21.66;90.87;100824.45;1729882;79;21352;-75
2021/08/07 07:41:08;;;;;;;14.70;10.93;;;;;;;21.68;90.77;100823.55;1719923;83;21352;-74
2021/08/07 07:43:40;;;;;;;;;;;;;;;21.72;90.69;100844.36;1720996;83;21748;-73
2021/08/07 07:46:13;;;;;;;18.52;11.10;;;;;;;21.77;90.44;100847.84;1718291;83;20255;-76
2021/08/07 07:48:46;;;;;;;17.37;10.58;;;;;;;21.78;89.86;100851.52;1723265;82;21376;-73
2021/08/07 07:51:18;;;;;;;15.65;10.48;;;;;;;21.78;89.86;100851.52;1737227;82;21321;-73
2021/08/07 07:53:51;;;;;;;21.75;11.70;;;;;;;21.74;88.96;100850.50;1703878;83;21190;-72
2021/08/07 07:56:26;;;;;;;14.25;9.90;;;;;;;21.70;88.57;100839.63;1719609;83;21345;-73
2021/08/07 07:58:58;;;;;;;11.60;8.95;;;;;;;21.68;88.08;100831.47;1723632;83;21200;-73
2021/08/07 08:01:31;;;;;;;;;;;;;;;21.66;88.09;100823.87;1726187;83;21219;-76
2021/08/07 08:04:05;;;;;;;30.70;27.40;;;;;;;21.67;87.72;100821.90;1720660;82;20610;-74
2021/08/07 08:06:39;;;;;;;25.65;19.50;;;;;;;21.67;87.75;100816.24;1748509;82;21211;-75
2021/08/07 08:09:11;;;;;;;24.80;18.67;;;;;;;21.69;87.64;100810.51;1751047;82;21317;-77
2021/08/07 08:11:46;;;;;;;15.60;11.38;;;;;;;21.75;87.88;100804.13;1717613;79;22864;-73
2021/08/07 08:14:18;;;;;;;17.90;9.27;;;;;;;21.81;86.89;100799.37;1711525;82;21179;-74
2021/08/07 08:16:52;;;;;;;12.63;9.40;;;;;;;21.83;85.57;100792.80;1713385;83;21191;-74
2021/08/07 08:19:24;;;;;;;14.90;8.73;;;;;;;21.90;84.87;100789.48;1712524;82;21544;-74
2021/08/07 08:21:57;;;;;;;12.93;8.48;;;;;;;21.92;84.15;100786.56;1710354;84;21365;-76
2021/08/07 08:24:30;;;;;;;16.57;8.40;;;;;;;21.94;83.44;100770.09;1713841;84;21408;-73
2021/08/07 08:27:03;;;;;;;19.35;8.88;;;;;;;21.99;83.26;100767.66;1713222;82;21181;-73
2021/08/07 08:29:37;;;;;;;15.75;10.10;;;;;;;22.07;82.42;100756.94;1713341;84;21333;-74
2021/08/07 08:32:12;;;;;;;19.95;9.63;;;;;;;22.16;82.03;100761.41;1713441;84;21336;-74
2021/08/07 08:34:44;;;;;;;12.30;6.70;;;;;;;22.26;81.56;100754.56;1713419;84;21917;-80
2021/08/07 08:37:17;;;;;;;9.75;7.78;;;;;;;22.36;80.11;100734.41;1713346;84;21250;-74
2021/08/07 08:39:50;;;;;;;11.40;8.33;;;;;;;22.45;80.01;100732.40;1708069;82;21392;-75
2021/08/07 08:42:23;;;;;;;11.22;7.42;;;;;;;22.45;79.96;100726.16;1738203;82;21910;-78
2021/08/07 08:44:57;;;;;;;10.70;7.70;;;;;;;22.45;80.21;100719.09;1719660;82;21384;-74
2021/08/07 08:47:30;;;;;;;11.18;7.55;;;;;;;22.49;79.44;100725.71;1740910;82;21404;-73
2021/08/07 08:50:05;;;;;;;12.63;7.80;;;;;;;22.59;79.31;100733.00;1740457;82;21842;-74
2021/08/07 08:52:40;;;;;;;11.80;7.33;;;;;;;22.69;78.78;100729.23;1695449;84;21346;-74
2021/08/07 08:55:13;;;;;;;11.18;7.10;;;;;;;22.82;79.98;100747.14;1683717;82;21202;-70
2021/08/07 08:57:46;;;;;;;12.23;7.80;;;;;;;23.03;79.11;100755.13;1685129;85;21250;-74
2021/08/07 09:00:20;;;;;;;8.38;7.03;;;;;;;23.25;77.54;100757.68;1684922;85;21218;-73
2021/08/07 09:02:52;;;;;;;7.10;6.40;;;;;;;23.42;76.84;100754.12;1685327;83;21882;-73
2021/08/07 09:05:25;;;;;;;26.42;7.15;;;;;;;23.57;76.06;100768.28;1685116;85;21924;-72
2021/08/07 09:07:58;;;;;;;8.38;7.17;;;;;;;23.66;73.49;100767.04;1709013;83;21398;-72
2021/08/07 09:10:34;;;;;;;11.78;7.17;;;;;;;23.73;74.46;100767.92;1712311;84;21198;-72
2021/08/07 09:13:06;;;;;;;12.70;6.87;;;;;;;23.86;74.17;100765.38;1712544;82;21570;-70
2021/08/07 09:15:40;;;;;;;;;;;;;;;23.93;72.13;100773.62;1708378;84;21748;-73
2021/08/07 09:18:21;;;;;;;7.03;6.33;;;;;;;23.92;69.92;100753.52;1709018;84;20256;-72
2021/08/07 09:20:55;;;;;;;7.72;5.97;;;;;;;23.84;70.92;100740.19;1712448;82;21349;-72
2021/08/07 09:23:33;;;;;;;9.60;6.53;;;;;;;23.81;71.33;100732.96;1712782;84;21328;-71
2021/08/07 09:26:23;;;;;;;6.42;5.03;;;;;;;23.85;71.38;100739.03;1712358;82;21329;-71
2021/08/07 09:28:58;;;;;;;9.18;5.70;;;;;;;23.88;70.01;100716.23;1734915;82;21400;-72
2021/08/07 09:31:42;;;;;;;9.53;5.53;;;;;;;23.85;69.39;100712.09;1722420;82;21370;-72
2021/08/07 09:34:20;;;;;;;7.47;4.95;;;;;;;23.76;68.72;100698.55;1695839;82;21246;-73
2021/08/07 09:36:56;;;;;;;7.62;5.65;;;;;;;23.70;68.82;100692.02;1743171;82;21344;-73
2021/08/07 09:39:49;;;;;;;5.03;4.42;;;;;;;23.64;69.11;100700.52;1743269;82;21361;-75
2021/08/07 09:42:27;;;;;;;6.70;5.47;;;;;;;23.55;68.35;100721.02;1739742;82;21349;-73
2021/08/07 09:45:13;;;;;;;16.17;5.17;;;;;;;23.38;69.24;100723.98;1731228;82;21175;-73
2021/08/07 09:47:57;;;;;;;10.95;4.87;;;;;;;23.28;70.49;100727.25;1724455;82;21713;-73
2021/08/07 09:50:32;;;;;;;7.12;4.85;;;;;;;23.17;70.75;100725.37;1723774;82;21951;-74
2021/08/07 09:53:19;;;;;;;6.78;5.10;;;;;;;23.06;70.95;100726.10;1724414;83;21360;-71
2021/08/07 09:56:04;;;;;;;17.40;6.00;;;;;;;23.01;71.50;100737.05;1716101;83;21724;-72
2021/08/07 09:58:42;;;;;;;7.78;5.05;;;;;;;22.94;71.64;100752.92;1722266;83;22062;-71
2021/08/07 10:01:31;;;;;;;8.95;5.58;;;;;;;22.86;71.79;100757.45;1722897;82;21854;-71
2021/08/07 10:04:14;;;;;;;7.50;5.85;;;;;;;22.82;72.62;100754.22;1723464;83;21336;-73
2021/08/07 10:06:50;;;;;;;14.68;5.97;;;;;;;22.78;73.51;100758.33;1689905;83;21433;-72
2021/08/07 10:09:35;;;;;;;5.05;4.55;;;;;;;22.75;73.75;100762.42;1722134;81;21476;-74
2021/08/07 10:12:12;;;;;;;7.67;4.72;;;;;;;22.71;73.09;100757.19;1718248;82;21700;-72
2021/08/07 10:14:46;;;;;;;6.10;4.70;;;;;;;22.67;72.59;100765.53;1720072;83;21193;-73
2021/08/07 10:17:23;;;;;;;;;;;;;;;22.66;72.54;100768.13;1719884;83;21337;-75
2021/08/07 10:19:54;;;;;;;11.48;4.78;;;;;;;22.68;72.97;100756.47;1719264;82;20180;-73
2021/08/07 10:22:27;;;;;;;;;;;;;;;22.69;73.08;100757.55;1721816;83;21206;-73
2021/08/07 10:25:04;;;;;;;9.48;5.28;;;;;;;22.72;71.61;100748.93;1716035;82;20185;-73
2021/08/07 10:27:37;;;;;;;10.85;3.90;;;;;;;22.75;70.26;100762.42;1719352;82;21732;-72
2021/08/07 10:30:13;;;;;;;8.85;4.10;;;;;;;22.78;70.02;100759.74;1718422;83;21282;-74
2021/08/07 10:33:06;;;;;;;13.38;5.15;;;;;;;22.88;69.75;100769.86;1713595;83;21756;-73
2021/08/07 10:36:23;;;;;;;13.80;7.28;;;;;;;23.11;69.52;100780.56;1851343;76;25777;-72
2021/08/07 10:38:56;;;;;;;11.95;6.22;;;;;;;23.22;70.38;100783.89;1801772;79;21321;-78
2021/08/07 10:41:30;;;;;;;15.80;5.35;;;;;;;23.34;69.69;100795.33;1819078;79;21289;-75
2021/08/07 10:44:05;;;;;;;15.53;5.05;;;;;;;23.44;68.04;100799.16;1795940;77;21453;-73
2021/08/07 10:46:38;;;;;;;11.38;4.03;;;;;;;23.49;67.41;100800.38;1711996;82;21217;-74
2021/08/07 10:49:14;;;;;;;12.10;4.00;;;;;;;23.54;65.65;100812.95;1724399;81;21871;-71
2021/08/07 10:51:48;;;;;;;;;;;;;;;23.55;65.45;100822.53;1746038;82;21324;-71
2021/08/07 10:54:37;;;;;;;13.50;4.50;;;;;;;23.58;65.54;100829.53;1754178;81;20528;-76
2021/08/07 10:57:22;;;;;;;28.65;4.35;;;;;;;23.58;64.43;100829.53;1752702;81;21251;-71
2021/08/07 10:59:55;;;;;;;15.20;3.90;;;;;;;23.54;64.81;100818.02;1721924;82;21429;-71
2021/08/07 11:02:30;;;;;;;10.63;3.65;;;;;;;23.55;65.73;100821.69;1736781;82;21286;-76
2021/08/07 11:05:06;;;;;;;8.53;3.95;;;;;;;23.57;65.05;100825.84;1750402;81;21187;-73
2021/08/07 11:07:40;;;;;;;12.80;3.62;;;;;;;23.64;65.54;100822.48;1743536;81;21334;-70
2021/08/07 11:10:15;;;;;;;9.03;3.70;;;;;;;23.72;65.64;100822.39;1751036;81;21477;-72
2021/08/07 11:12:49;;;;;;;6.00;3.72;;;;;;;23.77;64.96;100829.28;1744639;81;21171;-70
2021/08/07 11:15:31;;;;;;;5.12;3.10;;;;;;;23.78;63.99;100834.38;1714640;81;21259;-72
2021/08/07 11:18:25;;;;;;;8.23;3.87;;;;;;;23.78;63.30;100826.69;1749833;81;21198;-71
2021/08/07 11:20:58;;;;;;;11.43;3.52;;;;;;;23.82;64.29;100830.50;1759476;81;21708;-72
2021/08/07 11:23:38;;;;;;;6.53;2.97;;;;;;;23.85;64.62;100838.34;1750444;81;21326;-71
2021/08/07 11:26:11;;;;;;;5.50;3.00;;;;;;;23.91;65.80;100844.08;1752944;81;21482;-72
2021/08/07 11:29:08;;;;;;;4.62;3.00;;;;;;;23.99;65.46;100846.59;1750216;81;21723;-72
2021/08/07 11:31:41;;;;;;;7.05;3.30;;;;;;;24.06;64.89;100844.02;1747600;81;21316;-71
2021/08/07 11:34:24;;;;;;;10.70;3.22;;;;;;;24.13;64.15;100848.58;1751170;81;21303;-72
2021/08/07 11:37:17;;;;;;;9.28;3.35;;;;;;;24.14;62.33;100857.33;1741532;81;21195;-70
2021/08/07 11:40:17;;;;;;;4.40;2.50;;;;;;;24.13;61.74;100865.00;1720574;82;21731;-69
2021/08/07 11:42:50;;;;;;;4.17;2.67;;;;;;;24.14;61.55;100863.01;1739547;81;21306;-72
2021/08/07 11:45:24;;;;;;;3.15;2.65;;;;;;;24.15;61.52;100861.22;1755577;81;21335;-71
2021/08/07 11:47:59;;;;;;;7.08;2.95;;;;;;;24.15;61.13;100854.73;1748325;81;21276;-71
2021/08/07 11:50:32;;;;;;;2.95;2.58;;;;;;;24.13;60.98;100846.55;1740199;81;21315;-69
2021/08/07 11:53:14;;;;;;;4.55;2.60;;;;;;;24.14;60.93;100853.88;1747506;81;21228;-70
2021/08/07 11:55:49;;;;;;;5.20;2.98;;;;;;;24.18;60.62;100846.92;1744101;81;21285;-73
2021/08/07 11:58:21;;;;;;;5.35;3.92;;;;;;;24.22;59.66;100853.00;1749898;81;21234;-72